Time;durP1;ratioP1;P1;durP2;ratioP2;P2;SDS_P1;SDS_P2;PMS_P1;PMS_P2;Temp;Humidity;BMP_temperature;BMP_pressure;BME280_temperature;BME280_humidity;BME280_pressure;Samples;Min_cycle;Max_cycle;Signal;HPM_P1;HPM_P2
2023/02/15 00:01:58;;;;;;;10.70;5.72;;;;;;;-8.08;58.56;99129.88;4756419;30;20075;-80
2023/02/15 00:04:45;;;;;;;9.75;5.53;;;;;;;-8.10;58.39;99128.16;4771279;30;20091;-78
2023/02/15 00:07:11;;;;;;;9.02;5.40;;;;;;;-8.08;58.47;99129.88;4771191;30;20055;-79
2023/02/15 00:09:36;;;;;;;8.98;5.13;;;;;;;-8.07;58.37;99126.41;4756228;30;20070;-78
2023/02/15 00:12:02;;;;;;;10.27;5.18;;;;;;;-8.11;58.23;99124.72;4785171;30;20576;-78
2023/02/15 00:14:28;;;;;;;9.90;4.90;;;;;;;-8.10;58.48;99123.84;4756316;30;20052;-78
2023/02/15 00:16:54;;;;;;;7.25;4.70;;;;;;;-8.09;58.16;99128.13;4756629;30;20079;-78
2023/02/15 00:19:21;;;;;;;14.18;5.68;;;;;;;-8.08;58.09;99114.31;4772196;30;20098;-79
2023/02/15 00:21:48;;;;;;;12.38;5.95;;;;;;;-8.02;58.15;99118.56;4756294;30;20067;-79
2023/02/15 00:24:16;;;;;;;15.75;5.07;;;;;;;-8.01;58.00;99109.06;4772321;30;20083;-80
2023/02/15 00:26:43;;;;;;;10.88;5.72;;;;;;;-8.02;58.27;99113.38;4757421;30;20052;-80
2023/02/15 00:29:11;;;;;;;15.43;5.10;;;;;;;-7.99;58.13;99112.50;4771614;30;20059;-81
2023/02/15 00:31:37;;;;;;;12.25;5.05;;;;;;;-8.00;58.27;99108.22;4772298;30;20047;-82
2023/02/15 00:34:07;;;;;;;12.02;5.22;;;;;;;-8.00;58.25;99095.25;4770939;30;20052;-82
2023/02/15 00:36:34;;;;;;;11.68;5.07;;;;;;;-7.97;58.34;99105.56;4771181;30;20143;-80
2023/02/15 00:39:00;;;;;;;20.60;10.90;;;;;;;-7.91;58.49;99105.50;4771054;30;20047;-80
2023/02/15 00:41:26;;;;;;;9.40;4.57;;;;;;;-7.88;58.36;99110.69;4771514;30;20051;-81
2023/02/15 00:43:52;;;;;;;9.20;4.95;;;;;;;-7.85;58.31;99110.66;4755992;30;20055;-82
2023/02/15 00:46:18;;;;;;;10.65;5.75;;;;;;;-7.79;58.24;99105.38;4755896;30;20048;-79
2023/02/15 00:48:44;;;;;;;11.07;5.28;;;;;;;-7.84;58.10;99107.19;4785889;30;20081;-79
2023/02/15 00:51:10;;;;;;;11.88;5.97;;;;;;;-7.74;58.07;99114.00;4771794;30;20055;-80
2023/02/15 00:53:36;;;;;;;9.23;5.00;;;;;;;-7.68;57.98;99108.72;4771661;30;20417;-79
2023/02/15 00:56:02;;;;;;;10.27;6.00;;;;;;;-7.65;57.85;99095.72;4770495;30;20132;-79
2023/02/15 00:58:28;;;;;;;13.63;5.03;;;;;;;-7.60;58.41;99101.75;4785333;30;20104;-81
2023/02/15 01:00:54;;;;;;;7.45;4.80;;;;;;;-7.59;58.13;99107.78;4771755;30;20529;-79
2023/02/15 01:03:21;;;;;;;10.75;5.28;;;;;;;-7.54;58.21;99103.41;4770404;30;20051;-78
2023/02/15 01:05:48;;;;;;;10.05;4.82;;;;;;;-7.52;58.01;99098.19;4770331;30;20052;-79
2023/02/15 01:08:14;;;;;;;9.93;5.05;;;;;;;-7.53;57.88;99096.47;4771392;30;20054;-78
2023/02/15 01:10:40;;;;;;;8.18;4.78;;;;;;;-7.58;58.03;99083.53;4785087;30;20145;-79
2023/02/15 01:13:09;;;;;;;13.73;5.28;;;;;;;-7.59;58.15;99082.69;4755937;30;20047;-80
2023/02/15 01:15:36;;;;;;;8.32;4.90;;;;;;;-7.54;58.31;99089.56;4770558;30;20075;-78
2023/02/15 01:18:02;;;;;;;8.93;5.05;;;;;;;-7.50;58.13;99093.84;4770212;30;20056;-80
2023/02/15 01:20:29;;;;;;;12.23;5.32;;;;;;;-7.50;57.99;99086.06;4755252;30;20542;-79
2023/02/15 01:22:56;;;;;;;13.52;6.13;;;;;;;-7.50;57.97;99086.06;4770411;30;20139;-80
2023/02/15 01:25:23;;;;;;;10.52;6.03;;;;;;;-7.51;57.96;99084.34;4769827;30;20058;-80
2023/02/15 01:27:49;;;;;;;10.80;5.40;;;;;;;-7.50;57.92;99083.47;4770994;30;20047;-79
2023/02/15 01:30:15;;;;;;;11.10;5.80;;;;;;;-7.49;58.10;99087.75;4755312;30;20474;-79
2023/02/15 01:32:42;;;;;;;10.13;5.22;;;;;;;-7.49;58.04;99083.44;4756060;30;20052;-82
2023/02/15 01:35:09;;;;;;;11.23;5.60;;;;;;;-7.48;57.79;99079.97;4758862;30;20105;-80
2023/02/15 01:37:36;;;;;;;9.93;5.78;;;;;;;-7.43;58.01;99082.50;4771920;30;20134;-80
2023/02/15 01:40:08;;;;;;;12.75;5.75;;;;;;;-7.37;57.82;99079.81;4774031;30;20138;-83
2023/02/15 01:42:35;;;;;;;13.43;5.15;;;;;;;-7.36;57.73;99073.78;4763099;30;20112;-80
2023/02/15 01:45:17;;;;;;;11.80;5.15;;;;;;;-7.34;57.79;99072.00;4746274;30;20055;-80
2023/02/15 01:47:45;;;;;;;10.75;5.60;;;;;;;-7.24;58.01;99078.81;4771264;30;20055;-82
2023/02/15 01:50:23;;;;;;;11.18;5.90;;;;;;;-7.16;57.55;99078.72;4755108;30;20085;-81
2023/02/15 01:53:18;;;;;;;8.80;5.38;;;;;;;-7.10;57.48;99076.91;4770157;30;20060;-80
2023/02/15 01:55:53;;;;;;;10.10;5.20;;;;;;;-7.05;57.73;99081.16;4739103;30;20048;-80
2023/02/15 01:58:20;;;;;;;17.67;6.22;;;;;;;-7.00;57.36;99076.75;4769472;30;20059;-79
2023/02/15 02:00:46;;;;;;;9.57;5.40;;;;;;;-6.96;57.19;99078.44;4769656;30;20417;-80
2023/02/15 02:03:13;;;;;;;9.88;5.40;;;;;;;-6.97;56.95;99071.53;4769438;30;20051;-79
2023/02/15 02:05:40;;;;;;;8.80;5.38;;;;;;;-6.90;56.75;99073.16;4769372;30;20056;-79
2023/02/15 02:08:09;;;;;;;10.20;5.50;;;;;;;-6.90;56.81;99070.56;4770759;30;20503;-80
2023/02/15 02:10:35;;;;;;;9.75;5.25;;;;;;;-6.87;56.83;99070.53;4754341;30;20076;-80
2023/02/15 02:13:06;;;;;;;11.65;5.80;;;;;;;-6.85;56.79;99073.94;4769647;30;20044;-81
2023/02/15 02:15:58;;;;;;;8.65;5.07;;;;;;;-6.79;56.77;99070.41;4769441;30;20096;-79
2023/02/15 02:18:39;;;;;;;9.95;4.97;;;;;;;-6.78;56.33;99069.53;4739943;30;20147;-79
2023/02/15 02:21:26;;;;;;;11.70;5.60;;;;;;;-6.72;56.31;99078.09;4754062;30;20061;-79
2023/02/15 02:24:37;;;;;;;14.90;5.53;;;;;;;-6.67;56.33;99078.88;4769384;30;20135;-80
2023/02/15 02:27:15;;;;;;;11.55;4.68;;;;;;;-6.66;56.18;99085.78;4753940;30;20060;-81
2023/02/15 02:30:03;;;;;;;14.18;5.50;;;;;;;-6.69;56.13;99088.47;4768692;30;20087;-79
2023/02/15 02:32:50;;;;;;;12.25;5.28;;;;;;;-6.61;56.10;99089.19;4753895;30;20084;-78
2023/02/15 02:35:37;;;;;;;10.68;5.18;;;;;;;-6.53;55.81;99098.63;4738949;30;20047;-80
2023/02/15 02:38:27;;;;;;;9.77;5.22;;;;;;;-6.54;55.62;99083.88;4739353;30;20063;-81
2023/02/15 02:41:15;;;;;;;8.50;4.85;;;;;;;-6.51;55.61;99107.25;4768986;30;20055;-80
2023/02/15 02:44:06;;;;;;;11.23;5.22;;;;;;;-6.48;55.76;99105.47;4768986;30;20060;-80
2023/02/15 02:46:54;;;;;;;11.07;5.85;;;;;;;-6.44;55.88;99101.94;4753947;30;20056;-79
2023/02/15 02:49:33;;;;;;;13.25;5.65;;;;;;;-6.37;55.35;99106.16;4750939;30;20089;-81
2023/02/15 02:52:01;;;;;;;10.50;5.35;;;;;;;-6.39;55.51;99105.34;4753844;30;20425;-79
2023/02/15 02:54:28;;;;;;;7.93;5.35;;;;;;;-6.45;55.48;99104.56;4768626;30;20135;-80
2023/02/15 02:56:59;;;;;;;9.05;5.22;;;;;;;-6.40;55.84;99107.94;4768340;30;20047;-77
2023/02/15 02:59:30;;;;;;;10.77;5.13;;;;;;;-6.36;55.55;99107.00;4754166;30;20052;-78
2023/02/15 03:02:13;;;;;;;11.43;5.45;;;;;;;-6.37;55.48;99100.94;4754145;30;20354;-80
2023/02/15 03:04:45;;;;;;;9.80;5.00;;;;;;;-6.52;55.75;99100.34;4754011;30;20055;-79
2023/02/15 03:07:21;;;;;;;11.23;4.90;;;;;;;-6.46;55.42;99103.72;4753750;30;20055;-79
2023/02/15 03:09:51;;;;;;;11.70;5.80;;;;;;;-6.35;55.44;99108.75;4769859;30;20135;-81
2023/02/15 03:12:25;;;;;;;12.05;5.47;;;;;;;-6.32;55.11;99103.47;4768551;30;20074;-79
2023/02/15 03:15:04;;;;;;;10.07;4.47;;;;;;;-6.30;55.02;99096.53;4753927;30;20412;-79
2023/02/15 03:17:48;;;;;;;10.50;4.87;;;;;;;-6.42;55.41;99099.31;4768869;30;20542;-78
2023/02/15 03:20:34;;;;;;;13.18;5.18;;;;;;;-6.34;55.62;99097.44;4768694;30;20068;-78
2023/02/15 03:23:15;;;;;;;9.95;5.10;;;;;;;-6.23;55.36;99105.94;4768579;30;20161;-80
2023/02/15 03:25:44;;;;;;;18.25;5.60;;;;;;;-6.19;55.54;99098.94;4768736;30;20104;-79
2023/02/15 03:28:25;;;;;;;12.57;6.20;;;;;;;-6.14;55.47;99103.19;4768794;30;20044;-80
2023/02/15 03:30:55;;;;;;;12.10;5.80;;;;;;;-6.12;55.20;99106.63;4768732;30;20087;-79
2023/02/15 03:33:23;;;;;;;11.65;5.25;;;;;;;-6.09;55.15;99099.63;4768350;30;20146;-79
2023/02/15 03:35:59;;;;;;;10.18;5.60;;;;;;;-6.08;55.67;99103.97;4753561;30;20064;-79
2023/02/15 03:38:42;;;;;;;12.05;4.95;;;;;;;-6.08;55.00;99107.44;4769510;30;20101;-79
2023/02/15 03:41:10;;;;;;;10.30;4.85;;;;;;;-6.09;55.10;99094.44;4783282;30;20493;-79
2023/02/15 03:43:55;;;;;;;11.32;5.88;;;;;;;-5.98;55.70;99108.13;4769246;30;20493;-78
2023/02/15 03:46:25;;;;;;;15.13;5.85;;;;;;;-5.99;55.80;99111.63;4756233;30;20059;-79
2023/02/15 03:48:56;;;;;;;9.40;4.95;;;;;;;-5.95;55.27;99110.69;4771491;30;20504;-81
2023/02/15 03:51:34;;;;;;;11.70;4.95;;;;;;;-5.92;55.19;99108.03;4771456;30;20047;-76
2023/02/15 03:54:03;;;;;;;10.38;5.43;;;;;;;-5.84;55.03;99126.94;4756766;30;20091;-79
2023/02/15 03:56:28;;;;;;;13.25;5.50;;;;;;;-5.81;55.13;99121.69;4757100;30;20105;-83
2023/02/15 04:01:59;;;;;;;7.82;4.97;;;;;;;-5.94;55.32;99120.19;4774917;30;20048;-82
2023/02/15 04:04:32;;;;;;;17.88;5.50;;;;;;;-5.94;55.09;99104.56;4765504;30;20051;-80
2023/02/15 04:06:57;;;;;;;10.38;5.35;;;;;;;-6.05;55.36;99114.34;4772485;30;20097;-81
2023/02/15 04:12:08;;;;;;;13.63;5.90;;;;;;;-5.79;55.38;99113.84;4771128;30;20146;-79
2023/02/15 04:17:18;;;;;;;11.40;6.53;;;;;;;-5.74;55.55;99092.06;4771405;30;20056;-80
2023/02/15 04:25:13;;;;;;;13.07;5.88;;;;;;;-5.40;55.49;99107.03;4773843;30;20073;-78
2023/02/15 04:27:45;;;;;;;11.40;5.60;;;;;;;-5.33;55.97;99111.25;4773644;30;20103;-80
2023/02/15 04:30:12;;;;;;;15.05;6.13;;;;;;;-5.39;55.71;99099.19;4772828;30;20344;-79
2023/02/15 04:32:38;;;;;;;14.00;6.40;;;;;;;-5.28;55.68;99116.34;4755009;30;20103;-79
2023/02/15 04:35:05;;;;;;;11.13;6.20;;;;;;;-5.20;55.59;99123.13;4785651;29;20146;-79
2023/02/15 04:37:32;;;;;;;25.08;6.15;;;;;;;-5.17;55.32;99123.06;4791493;29;20133;-78
2023/02/15 04:39:58;;;;;;;19.30;6.35;;;;;;;-5.18;55.79;99113.53;4791259;29;20106;-77
2023/02/15 04:42:27;;;;;;;38.78;6.65;;;;;;;-5.25;55.80;99117.16;4807157;29;20050;-75
2023/02/15 04:44:54;;;;;;;27.73;6.63;;;;;;;-5.31;55.80;99124.22;4776203;29;20047;-79
2023/02/15 04:47:20;;;;;;;36.03;7.65;;;;;;;-5.29;56.02;99125.06;4791786;29;20043;-77
2023/02/15 04:49:46;;;;;;;15.07;6.40;;;;;;;-5.21;56.21;99126.63;4792105;29;20062;-78
2023/02/15 04:52:11;;;;;;;14.73;7.20;;;;;;;-5.12;56.00;99126.44;4777035;29;20047;-81
2023/02/15 04:54:37;;;;;;;20.63;6.88;;;;;;;-5.09;56.33;99127.28;4776909;29;20043;-76
2023/02/15 04:57:04;;;;;;;33.88;7.57;;;;;;;-4.95;56.18;99138.28;4791077;29;20050;-80
2023/02/15 04:59:29;;;;;;;13.63;6.30;;;;;;;-4.79;55.88;99116.19;4776669;29;20414;-80
2023/02/15 05:01:55;;;;;;;12.93;7.20;;;;;;;-4.55;55.86;99121.75;4775522;29;20054;-79
2023/02/15 05:04:21;;;;;;;10.52;6.20;;;;;;;-4.35;55.63;99116.97;4773081;29;20055;-79
2023/02/15 05:06:47;;;;;;;12.65;6.18;;;;;;;-4.20;55.32;99120.97;4788267;30;20051;-80
2023/02/15 05:09:13;;;;;;;10.27;6.15;;;;;;;-4.11;54.96;99114.66;4773106;30;20602;-80
2023/02/15 05:11:39;;;;;;;14.82;6.28;;;;;;;-3.86;54.78;99123.59;4743647;30;20043;-80
2023/02/15 05:14:05;;;;;;;12.45;6.03;;;;;;;-3.64;54.38;99110.00;4773021;30;20179;-79
2023/02/15 05:16:31;;;;;;;11.15;6.07;;;;;;;-3.47;54.06;99107.78;4772818;30;20154;-81
2023/02/15 05:18:57;;;;;;;10.75;5.63;;;;;;;-3.51;53.73;99120.06;4773026;30;20055;-81
2023/02/15 05:21:23;;;;;;;11.98;6.40;;;;;;;-3.38;53.94;99120.59;4772689;30;20177;-81
2023/02/15 05:23:49;;;;;;;12.55;5.95;;;;;;;-3.25;53.94;99121.13;4787821;30;20057;-80
2023/02/15 05:29:06;;;;;;;12.95;5.82;;;;;;;-3.11;53.02;99136.44;4789591;30;20055;-79
2023/02/15 05:31:33;;;;;;;11.63;6.22;;;;;;;-3.11;53.56;99137.28;4789212;30;20078;-80
2023/02/15 05:33:59;;;;;;;17.13;6.18;;;;;;;-3.21;53.44;99141.88;4774229;29;20495;-80
2023/02/15 05:36:25;;;;;;;11.48;5.68;;;;;;;-3.33;53.74;99131.78;4783432;30;20079;-80
2023/02/15 05:38:50;;;;;;;11.75;6.55;;;;;;;-3.10;53.18;99138.13;4757800;30;20082;-79
2023/02/15 05:41:16;;;;;;;12.35;6.55;;;;;;;-2.98;53.79;99151.72;4772753;30;20055;-81
2023/02/15 05:43:42;;;;;;;12.93;6.75;;;;;;;-3.17;53.90;99143.50;4757369;30;20051;-79
2023/02/15 05:46:09;;;;;;;13.93;7.72;;;;;;;-3.10;53.89;99146.81;4772473;30;20058;-79
2023/02/15 05:48:34;;;;;;;15.68;7.40;;;;;;;-3.14;54.21;99139.13;4788420;30;20082;-81
2023/02/15 05:51:09;;;;;;;21.98;7.63;;;;;;;-3.10;54.54;99145.97;4788567;30;20082;-78
2023/02/15 05:53:37;;;;;;;13.10;6.88;;;;;;;-3.09;54.49;99156.38;4788541;30;20450;-78
2023/02/15 05:56:05;;;;;;;18.05;7.53;;;;;;;-3.13;54.53;99151.28;4772339;30;20062;-77
2023/02/15 05:58:36;;;;;;;26.10;8.95;;;;;;;-3.12;54.75;99156.50;4743228;30;20051;-77
2023/02/15 06:01:15;;;;;;;23.45;8.68;;;;;;;-2.95;54.44;99161.22;4772364;30;20094;-77
2023/02/15 06:03:41;;;;;;;14.95;7.88;;;;;;;-2.79;53.57;99149.41;4788304;30;20533;-79
2023/02/15 06:06:07;;;;;;;15.18;7.07;;;;;;;-2.71;53.64;99150.09;4795543;29;20137;-80
2023/02/15 06:08:35;;;;;;;17.35;7.55;;;;;;;-2.82;53.63;99154.75;4771014;30;20059;-80
2023/02/15 06:11:01;;;;;;;14.10;7.80;;;;;;;-2.72;53.72;99160.56;4772256;30;20051;-80
2023/02/15 06:13:27;;;;;;;14.88;6.97;;;;;;;-2.66;53.41;99162.16;4788309;30;20086;-81
2023/02/15 06:15:53;;;;;;;12.30;6.18;;;;;;;-2.38;53.35;99157.81;4772235;30;20492;-79
2023/02/15 06:18:19;;;;;;;14.52;6.75;;;;;;;-2.32;52.73;99157.63;4787168;30;20043;-80
2023/02/15 06:20:48;;;;;;;13.25;6.65;;;;;;;-2.62;52.67;99151.56;4756858;30;20055;-79
2023/02/15 06:23:14;;;;;;;27.85;9.18;;;;;;;-2.55;52.39;99153.09;4771712;30;20050;-80
2023/02/15 06:25:40;;;;;;;15.20;7.22;;;;;;;-2.58;52.36;99137.47;4771844;30;20043;-80
2023/02/15 06:28:06;;;;;;;15.75;7.20;;;;;;;-2.33;52.32;99144.56;4771963;30;20492;-81
2023/02/15 06:30:32;;;;;;;17.38;7.05;;;;;;;-2.36;52.20;99131.59;4788256;30;20404;-80
2023/02/15 06:32:58;;;;;;;13.63;6.38;;;;;;;-2.05;52.21;99145.44;4771872;30;20055;-79
2023/02/15 06:35:24;;;;;;;13.10;6.55;;;;;;;-2.34;51.62;99150.72;4756554;30;20108;-78
2023/02/15 06:37:50;;;;;;;11.38;6.57;;;;;;;-2.37;52.24;99156.91;4772066;30;20051;-79
2023/02/15 06:40:16;;;;;;;14.52;5.60;;;;;;;-2.43;51.79;99159.72;4772038;30;20051;-80
2023/02/15 06:42:43;;;;;;;15.43;6.50;;;;;;;-2.33;52.38;99153.31;4757351;30;20124;-79
2023/02/15 06:45:11;;;;;;;20.30;6.00;;;;;;;-2.32;52.67;99160.25;4771618;30;20084;-78
2023/02/15 06:47:37;;;;;;;8.90;5.25;;;;;;;-2.15;52.47;99153.63;4771509;30;20051;-81
2023/02/15 06:50:07;;;;;;;10.27;5.75;;;;;;;-2.00;52.67;99159.22;4778380;29;20055;-81
2023/02/15 06:52:33;;;;;;;13.38;6.50;;;;;;;-1.80;52.93;99153.34;4789422;29;20051;-82
2023/02/15 06:54:58;;;;;;;9.30;5.20;;;;;;;-1.43;52.43;99161.72;4789440;29;20047;-81
2023/02/15 06:57:24;;;;;;;10.75;5.40;;;;;;;-1.20;52.23;99171.41;4789556;29;20062;-80
2023/02/15 06:59:50;;;;;;;10.93;5.82;;;;;;;-1.20;51.95;99163.53;4775486;29;20082;-80
2023/02/15 07:02:16;;;;;;;9.13;6.05;;;;;;;-1.24;53.06;99166.31;4775793;29;20046;-88
2023/02/15 07:04:42;;;;;;;11.40;5.93;;;;;;;-1.26;52.74;99168.09;4776542;29;20141;-78
2023/02/15 07:07:09;;;;;;;10.82;5.63;;;;;;;-0.96;52.72;99165.31;4806013;29;20047;-79
2023/02/15 07:09:35;;;;;;;10.18;6.05;;;;;;;-0.95;51.81;99161.78;4789889;29;20085;-78
2023/02/15 07:14:45;;;;;;;12.15;6.88;;;;;;;-0.77;51.86;99163.72;4774490;29;20058;-80
2023/02/15 07:17:10;;;;;;;12.00;6.18;;;;;;;-0.63;51.99;99159.75;4774175;29;20047;-78
2023/02/15 07:19:36;;;;;;;8.88;5.55;;;;;;;-0.69;51.40;99165.22;4789738;29;20084;-82
2023/02/15 07:22:03;;;;;;;13.48;5.85;;;;;;;-1.04;51.14;99164.75;4790200;30;20059;-80
2023/02/15 07:24:29;;;;;;;10.13;5.90;;;;;;;-1.09;52.03;99156.16;4791149;30;20055;-82
2023/02/15 07:26:55;;;;;;;10.60;5.57;;;;;;;-1.37;52.25;99149.28;4791235;29;20061;-80
2023/02/15 07:29:20;;;;;;;12.07;5.80;;;;;;;-1.50;52.84;99155.84;4791852;29;20122;-82
2023/02/15 07:31:46;;;;;;;18.02;6.20;;;;;;;-1.46;53.23;99157.47;4790237;30;20139;-82
2023/02/15 07:34:12;;;;;;;32.78;7.43;;;;;;;-1.57;53.35;99154.34;4774880;30;20055;-80
2023/02/15 07:36:38;;;;;;;12.52;6.25;;;;;;;-1.30;53.78;99148.16;4791225;30;20062;-82
2023/02/15 07:39:04;;;;;;;11.63;6.50;;;;;;;-0.86;53.38;99153.59;4792827;30;20047;-80
2023/02/15 07:41:30;;;;;;;15.32;9.30;;;;;;;-0.57;52.87;99159.50;4761200;30;20051;-81
2023/02/15 07:43:55;;;;;;;12.50;6.85;;;;;;;-0.48;52.22;99158.31;4775297;30;20047;-80
2023/02/15 07:46:21;;;;;;;12.73;6.38;;;;;;;-0.27;52.35;99168.81;4789795;30;20055;-80
2023/02/15 07:48:47;;;;;;;26.63;7.90;;;;;;;-0.49;51.92;99162.69;4789614;30;20104;-80
2023/02/15 07:51:14;;;;;;;12.20;6.45;;;;;;;-0.59;52.60;99167.44;4790917;29;20055;-81
2023/02/15 07:53:40;;;;;;;14.20;6.65;;;;;;;-0.62;52.28;99164.06;4789620;30;20047;-79
2023/02/15 07:56:09;;;;;;;11.20;6.70;;;;;;;-0.67;52.94;99174.75;4790052;29;20078;-82
2023/02/15 07:58:50;;;;;;;9.27;5.88;;;;;;;-0.47;52.66;99168.75;4770573;30;20101;-79
2023/02/15 08:01:26;;;;;;;8.93;5.53;;;;;;;-0.45;51.96;99169.56;4742176;30;20501;-83
2023/02/15 08:03:54;;;;;;;9.32;5.20;;;;;;;-0.25;52.25;99182.78;4772476;30;20059;-85
2023/02/15 08:06:22;;;;;;;10.82;5.95;;;;;;;-0.31;51.39;99177.75;4772805;30;20571;-84
2023/02/15 08:08:48;;;;;;;9.75;5.68;;;;;;;-0.24;52.03;99178.38;4771911;30;20056;-82
2023/02/15 08:11:25;;;;;;;10.48;5.40;;;;;;;-0.28;52.30;99166.28;4759683;30;20107;-83
2023/02/15 08:13:56;;;;;;;15.05;6.43;;;;;;;-0.33;52.43;99163.81;4786410;30;20059;-85
2023/02/15 08:16:42;;;;;;;11.45;5.15;;;;;;;-0.17;52.83;99163.22;4742163;30;20146;-81
2023/02/15 08:19:11;;;;;;;10.40;6.15;;;;;;;0.01;52.77;99161.66;4785683;30;20059;-82
2023/02/15 08:21:39;;;;;;;17.00;7.43;;;;;;;0.15;52.62;99164.56;4785968;30;20051;-84
2023/02/15 08:24:07;;;;;;;9.38;5.60;;;;;;;0.35;52.11;99161.13;4771185;30;20055;-82
2023/02/15 08:26:34;;;;;;;9.55;5.45;;;;;;;0.61;51.60;99147.75;4771619;30;20055;-84
2023/02/15 08:29:00;;;;;;;8.25;5.60;;;;;;;0.70;51.00;99152.59;4771429;30;20134;-83
2023/02/15 08:31:27;;;;;;;9.63;5.68;;;;;;;0.60;50.65;99156.56;4755672;30;20043;-82
2023/02/15 08:33:54;;;;;;;8.73;5.10;;;;;;;0.57;50.67;99150.59;4771955;30;20059;-81
2023/02/15 08:36:23;;;;;;;10.45;5.32;;;;;;;0.39;51.09;99150.41;4777299;30;20047;-80
2023/02/15 08:38:49;;;;;;;13.82;4.88;;;;;;;0.16;51.78;99151.38;4773431;30;20043;-81
2023/02/15 08:41:24;;;;;;;9.10;4.63;;;;;;;0.18;52.04;99153.94;4772925;30;20051;-80
2023/02/15 08:43:53;;;;;;;10.93;5.82;;;;;;;0.36;51.85;99153.16;4773497;30;20054;-84
2023/02/15 08:46:20;;;;;;;10.57;4.50;;;;;;;0.32;51.87;99156.00;4770288;30;20050;-82
2023/02/15 08:48:46;;;;;;;15.10;5.63;;;;;;;0.40;52.19;99157.38;4771304;30;20496;-86
2023/02/15 08:51:22;;;;;;;8.65;4.75;;;;;;;0.83;51.11;99152.94;4760063;30;20051;-80
2023/02/15 08:53:50;;;;;;;12.02;6.60;;;;;;;0.98;50.78;99151.41;4758511;30;20051;-82
2023/02/15 08:56:19;;;;;;;6.77;5.10;;;;;;;1.10;50.02;99145.59;4773362;30;20054;-81
2023/02/15 08:58:45;;;;;;;7.88;4.88;;;;;;;1.15;50.12;99155.94;4772787;30;20316;-80
2023/02/15 09:01:17;;;;;;;16.27;5.32;;;;;;;1.20;49.69;99162.72;4772461;30;20511;-81
2023/02/15 09:03:45;;;;;;;8.52;5.00;;;;;;;1.27;49.64;99157.16;4788666;29;20127;-81
2023/02/15 09:06:11;;;;;;;12.02;5.03;;;;;;;1.29;48.96;99150.91;4772056;30;20073;-82
2023/02/15 09:08:37;;;;;;;25.30;6.97;;;;;;;1.32;48.99;99149.91;4757375;30;20043;-81
2023/02/15 09:11:08;;;;;;;10.35;5.07;;;;;;;1.60;48.89;99149.50;4788127;29;20058;-82
2023/02/15 09:13:34;;;;;;;7.70;4.40;;;;;;;1.70;48.90;99146.34;4772495;30;20051;-82
2023/02/15 09:16:02;;;;;;;13.30;5.55;;;;;;;1.56;48.27;99147.94;4789685;29;20043;-83
2023/02/15 09:18:39;;;;;;;8.77;5.35;;;;;;;1.54;48.85;99153.25;4772259;30;20047;-85
2023/02/15 09:21:07;;;;;;;7.93;5.15;;;;;;;1.73;48.62;99144.50;4771858;30;20062;-83
2023/02/15 09:23:33;;;;;;;8.75;5.00;;;;;;;1.61;48.54;99146.78;4771507;30;20053;-84
2023/02/15 09:26:04;;;;;;;10.95;6.25;;;;;;;1.56;49.43;99143.50;4771627;30;20043;-81
2023/02/15 09:28:32;;;;;;;9.60;5.90;;;;;;;1.63;48.75;99142.31;4757082;30;20050;-83
2023/02/15 09:31:10;;;;;;;12.50;4.68;;;;;;;1.36;49.13;99141.81;4786538;30;20043;-81
2023/02/15 09:33:36;;;;;;;21.98;4.93;;;;;;;1.00;49.25;99130.28;4784489;29;20075;-82
2023/02/15 09:36:06;;;;;;;7.60;4.70;;;;;;;0.81;50.07;99135.50;4770571;30;20039;-81
2023/02/15 09:38:32;;;;;;;16.17;4.93;;;;;;;1.00;50.61;99140.81;4790964;30;20051;-85
2023/02/15 09:41:30;;;;;;;9.93;5.00;;;;;;;1.49;49.34;99142.06;4754895;30;20055;-83
2023/02/15 09:44:14;;;;;;;7.25;4.90;;;;;;;2.02;48.13;99133.41;4754946;30;20043;-80
2023/02/15 09:47:02;;;;;;;11.55;4.70;;;;;;;2.31;46.88;99141.69;4771712;30;20043;-86
2023/02/15 09:50:18;;;;;;;14.20;5.30;;;;;;;2.12;46.84;99137.31;4786439;30;20047;-83
2023/02/15 09:52:57;;;;;;;7.60;4.45;;;;;;;2.38;47.23;99143.94;4785453;30;20062;-83
2023/02/15 09:55:26;;;;;;;7.97;5.10;;;;;;;2.43;47.18;99141.06;4754615;30;20047;-86
2023/02/15 09:58:26;;;;;;;7.15;5.13;;;;;;;2.37;46.40;99149.28;4788164;30;20059;-88
2023/02/15 10:01:13;;;;;;;12.88;6.40;;;;;;;2.26;46.95;99148.97;4788458;30;20046;-87
2023/02/15 10:04:21;;;;;;;7.97;4.75;;;;;;;1.69;47.34;99143.78;4794091;29;20059;-81
2023/02/15 10:07:01;;;;;;;7.72;4.65;;;;;;;1.43;47.70;99151.13;4780224;30;20093;-82
2023/02/15 10:09:44;;;;;;;7.22;4.60;;;;;;;1.38;48.45;99165.41;4787150;29;20058;-82
2023/02/15 10:12:34;;;;;;;10.27;4.97;;;;;;;1.23;48.39;99163.47;4770750;30;20566;-81
2023/02/15 10:15:11;;;;;;;8.93;5.60;;;;;;;0.87;48.78;99157.16;4771223;30;20080;-83
2023/02/15 10:18:01;;;;;;;7.47;5.15;;;;;;;0.70;49.98;99160.50;4769075;30;20047;-83
2023/02/15 10:20:44;;;;;;;10.80;5.63;;;;;;;0.44;50.37;99160.75;4784545;30;20059;-82
2023/02/15 10:23:28;;;;;;;9.35;5.60;;;;;;;0.34;51.35;99162.03;4785201;30;20134;-81
2023/02/15 10:26:22;;;;;;;12.90;6.47;;;;;;;0.48;51.71;99162.31;4755772;30;20444;-83
2023/02/15 10:28:56;;;;;;;10.20;5.20;;;;;;;0.48;51.42;99154.44;4770684;30;20101;-80
2023/02/15 10:31:23;;;;;;;12.85;4.93;;;;;;;0.22;52.33;99168.66;4782182;30;20101;-80
2023/02/15 10:33:59;;;;;;;16.30;5.10;;;;;;;0.08;52.43;99163.97;4770634;29;20054;-85
2023/02/15 10:36:28;;;;;;;9.90;5.50;;;;;;;-0.09;53.02;99163.78;4771023;30;20054;-82
2023/02/15 10:39:13;;;;;;;9.60;5.80;;;;;;;0.28;52.67;99171.03;4784379;30;20051;-83
2023/02/15 10:42:04;;;;;;;10.13;4.93;;;;;;;0.44;52.25;99163.38;4755761;30;20059;-83
2023/02/15 10:44:55;;;;;;;11.18;5.05;;;;;;;0.36;52.06;99160.22;4770495;30;20420;-82
2023/02/15 10:47:30;;;;;;;7.43;4.70;;;;;;;0.27;52.30;99163.22;4785583;30;20043;-82
2023/02/15 10:50:21;;;;;;;26.00;5.82;;;;;;;0.12;52.71;99165.56;4769154;30;20043;-81
2023/02/15 10:53:13;;;;;;;8.77;5.50;;;;;;;0.09;53.38;99167.44;4785931;30;20051;-82
2023/02/15 10:55:45;;;;;;;8.23;5.53;;;;;;;0.14;53.08;99163.72;4787763;29;20058;-83
2023/02/15 10:58:33;;;;;;;13.63;5.78;;;;;;;0.27;53.17;99164.09;4791372;30;20051;-80
2023/02/15 11:01:25;;;;;;;8.90;5.55;;;;;;;0.49;53.25;99158.78;4789651;30;20472;-82
2023/02/15 11:03:57;;;;;;;12.40;6.05;;;;;;;0.79;52.73;99161.91;4775858;30;20055;-84
2023/02/15 11:06:25;;;;;;;12.65;5.78;;;;;;;0.77;52.17;99160.25;4792508;30;20051;-83
2023/02/15 11:08:57;;;;;;;10.38;6.15;;;;;;;1.05;52.57;99160.72;4793231;29;20420;-83
2023/02/15 11:11:31;;;;;;;11.45;5.55;;;;;;;0.96;51.94;99169.91;4777680;30;20066;-84
2023/02/15 11:14:02;;;;;;;12.95;5.97;;;;;;;0.95;51.48;99168.19;4774666;30;20477;-83
2023/02/15 11:16:39;;;;;;;9.48;5.53;;;;;;;0.72;51.33;99177.09;4776752;30;20071;-83
2023/02/15 11:19:18;;;;;;;10.07;5.97;;;;;;;0.88;51.76;99172.00;4775996;30;20075;-84
2023/02/15 11:21:49;;;;;;;10.23;4.88;;;;;;;0.94;51.12;99187.53;4774659;30;20124;-82
2023/02/15 11:24:20;;;;;;;8.50;5.53;;;;;;;0.95;51.06;99188.41;4789718;30;20055;-83
2023/02/15 11:27:14;;;;;;;16.80;7.35;;;;;;;0.88;50.91;99197.47;4776295;30;20146;-81
2023/02/15 11:29:52;;;;;;;8.93;5.50;;;;;;;0.90;51.06;99200.88;4788980;30;20131;-81
2023/02/15 11:32:38;;;;;;;9.77;5.68;;;;;;;0.77;50.86;99199.72;4776357;30;20048;-81
2023/02/15 11:35:17;;;;;;;8.20;4.85;;;;;;;0.70;51.18;99199.97;4791076;29;20051;-81
2023/02/15 11:37:50;;;;;;;10.57;5.15;;;;;;;0.59;51.11;99190.81;4772206;30;20516;-86
2023/02/15 11:40:30;;;;;;;8.63;5.18;;;;;;;0.61;50.94;99189.84;4776155;30;20058;-82
2023/02/15 11:43:07;;;;;;;6.93;4.80;;;;;;;0.43;51.19;99201.13;4791550;30;20054;-85
2023/02/15 11:45:34;;;;;;;6.75;4.47;;;;;;;0.15;51.87;99186.47;4791693;30;20067;-81
2023/02/15 11:48:08;;;;;;;7.78;4.70;;;;;;;0.14;52.02;99197.88;4777868;30;20039;-82
2023/02/15 11:50:34;;;;;;;10.20;4.82;;;;;;;0.27;52.52;99202.66;4777901;30;20046;-82
2023/02/15 11:53:04;;;;;;;9.52;5.20;;;;;;;0.12;52.27;99202.34;4791262;30;20047;-84
2023/02/15 11:55:30;;;;;;;8.68;4.95;;;;;;;0.21;52.79;99201.97;4775274;30;20043;-83
2023/02/15 11:58:02;;;;;;;9.57;4.60;;;;;;;0.30;52.19;99215.66;4775283;30;20047;-84
2023/02/15 12:00:37;;;;;;;8.70;5.05;;;;;;;0.16;52.46;99217.09;4790827;30;20047;-83
2023/02/15 12:03:26;;;;;;;10.30;4.88;;;;;;;-0.03;52.69;99211.69;4759821;30;20051;-82
2023/02/15 12:06:00;;;;;;;7.50;4.07;;;;;;;-0.29;53.54;99223.19;4773323;30;20534;-83
2023/02/15 12:08:38;;;;;;;10.60;5.18;;;;;;;-0.49;54.42;99225.69;4785885;30;20040;-82
2023/02/15 12:11:13;;;;;;;9.23;5.93;;;;;;;-0.47;55.06;99223.88;4770605;30;20479;-81